createdAt,value
2019-05-22T00:01:15.418Z,12.42
2019-05-22T00:03:45.474Z,12.42
2019-05-22T00:06:17.183Z,12.41
2019-05-22T00:08:48.476Z,12.41
2019-05-22T00:11:18.975Z,12.41
2019-05-22T00:13:47.990Z,12.39
2019-05-22T00:16:17.284Z,12.41
2019-05-22T00:18:47.487Z,12.40
2019-05-22T00:21:18.113Z,12.24
2019-05-22T00:23:47.086Z,12.41
2019-05-22T00:26:16.984Z,12.41
2019-05-22T00:28:47.207Z,12.39
2019-05-22T00:31:18.637Z,12.39
2019-05-22T00:33:47.752Z,12.38
2019-05-22T00:36:17.871Z,12.37
2019-05-22T00:38:46.395Z,12.35
2019-05-22T00:41:18.318Z,12.34
2019-05-22T00:43:48.418Z,12.33
2019-05-22T00:46:20.143Z,12.32
2019-05-22T00:48:48.743Z,12.33
2019-05-22T00:51:36.900Z,12.32
2019-05-22T00:54:25.224Z,12.30
2019-05-22T00:56:56.370Z,12.30
2019-05-22T00:59:27.907Z,12.28
2019-05-22T01:01:59.553Z,12.27
2019-05-22T01:04:39.009Z,12.25
2019-05-22T01:07:18.445Z,12.24
2019-05-22T01:09:52.971Z,12.18
2019-05-22T01:12:43.548Z,12.15
2019-05-22T01:15:15.347Z,12.12
2019-05-22T01:17:45.162Z,12.09
2019-05-22T01:20:16.003Z,12.07
2019-05-22T01:22:47.878Z,12.05
2019-05-22T01:25:20.787Z,12.03
2019-05-22T01:27:49.175Z,12.00
2019-05-22T01:30:23.899Z,11.98
2019-05-22T01:32:54.254Z,11.99
2019-05-22T01:35:30.097Z,12.00
2019-05-22T01:37:59.982Z,12.01
2019-05-22T01:40:41.617Z,12.02
2019-05-22T01:43:13.065Z,12.04
2019-05-22T01:45:43.215Z,12.06
2019-05-22T01:48:19.194Z,12.06
2019-05-22T01:50:56.299Z,12.09
2019-05-22T01:53:27.377Z,12.10
2019-05-22T01:55:58.990Z,12.11
2019-05-22T01:58:29.845Z,12.11
2019-05-22T02:01:00.406Z,12.11
2019-05-22T02:03:30.577Z,12.12
2019-05-22T02:06:00.992Z,12.14
2019-05-22T02:08:32.425Z,12.15
2019-05-22T02:11:01.925Z,12.15
2019-05-22T02:13:38.160Z,12.16
2019-05-22T02:16:09.246Z,12.16
2019-05-22T02:18:42.234Z,12.16
2019-05-22T02:21:12.526Z,12.15
2019-05-22T02:23:43.077Z,12.16
2019-05-22T02:26:13.212Z,12.15
2019-05-22T02:28:41.916Z,12.15
2019-05-22T02:31:14.962Z,12.14
2019-05-22T02:34:01.327Z,12.13
2019-05-22T02:36:30.500Z,12.13
2019-05-22T02:39:01.358Z,12.13
2019-05-22T02:41:34.664Z,12.12
2019-05-22T02:44:05.822Z,12.12
2019-05-22T02:46:34.711Z,12.11
2019-05-22T02:49:05.482Z,12.09
2019-05-22T02:51:33.974Z,12.09
2019-05-22T02:54:05.399Z,12.07
2019-05-22T02:56:34.815Z,12.06
2019-05-22T02:59:06.974Z,12.05
2019-05-22T03:01:37.842Z,12.03
2019-05-22T03:04:07.934Z,12.02
2019-05-22T03:06:37.680Z,12.03
2019-05-22T03:09:18.585Z,12.04
2019-05-22T03:11:53.883Z,12.04
2019-05-22T03:14:24.208Z,12.03
2019-05-22T03:16:56.357Z,12.01
2019-05-22T03:19:46.173Z,12.00
2019-05-22T03:22:25.770Z,12.01
2019-05-22T03:24:58.050Z,11.99
2019-05-22T03:27:39.010Z,11.99
2019-05-22T03:30:24.196Z,11.98
2019-05-22T03:32:54.569Z,11.97
2019-05-22T03:35:26.312Z,11.98
2019-05-22T03:37:56.950Z,11.97
2019-05-22T03:40:29.813Z,11.97
2019-05-22T03:42:59.813Z,11.96
2019-05-22T03:45:29.449Z,11.96
2019-05-22T03:47:59.112Z,11.95
2019-05-22T03:50:29.772Z,11.95
2019-05-22T03:53:01.080Z,11.95
2019-05-22T03:55:29.684Z,11.94
2019-05-22T03:57:58.117Z,11.94
2019-05-22T04:00:28.225Z,11.94
2019-05-22T04:02:57.118Z,11.93
2019-05-22T04:05:27.741Z,11.93
2019-05-22T04:07:58.554Z,11.94
2019-05-22T04:10:30.002Z,11.94
2019-05-22T04:12:58.577Z,11.95
2019-05-22T04:15:29.079Z,11.96
2019-05-22T04:18:01.477Z,11.96
2019-05-22T04:20:32.544Z,12.00
2019-05-22T04:23:02.112Z,12.01
2019-05-22T04:25:32.328Z,12.03
2019-05-22T04:28:02.379Z,12.04
2019-05-22T04:30:32.256Z,12.06
2019-05-22T04:33:01.779Z,12.07
2019-05-22T04:35:31.776Z,12.08
2019-05-22T04:38:01.958Z,12.10
2019-05-22T04:40:42.441Z,12.12
2019-05-22T04:43:12.398Z,12.13
2019-05-22T04:45:41.152Z,12.16
2019-05-22T04:48:10.517Z,12.17
2019-05-22T04:50:39.987Z,12.18
2019-05-22T04:53:11.563Z,12.18
2019-05-22T04:55:40.131Z,12.19
2019-05-22T04:58:11.382Z,12.20
2019-05-22T05:00:39.904Z,12.22
2019-05-22T05:03:09.347Z,12.22
2019-05-22T05:05:40.121Z,12.05
2019-05-22T05:08:11.968Z,12.23
2019-05-22T05:10:42.054Z,12.24
2019-05-22T05:13:10.688Z,12.26
2019-05-22T05:15:39.353Z,12.21
2019-05-22T05:18:08.077Z,12.28
2019-05-22T05:20:38.148Z,12.30
2019-05-22T05:23:06.782Z,12.35
2019-05-22T05:25:35.200Z,12.37
2019-05-22T05:28:07.294Z,12.37
2019-05-22T05:30:35.952Z,12.27
2019-05-22T05:33:05.979Z,12.47
2019-05-22T05:35:36.663Z,12.47
2019-05-22T05:38:07.069Z,12.51
2019-05-22T05:40:41.827Z,12.53
2019-05-22T05:43:12.420Z,12.54
2019-05-22T05:45:43.140Z,12.55
2019-05-22T05:48:14.054Z,12.53
2019-05-22T05:51:01.835Z,12.54
2019-05-22T05:53:32.445Z,12.55
2019-05-22T05:56:10.648Z,12.55
2019-05-22T05:58:40.922Z,12.58
2019-05-22T06:01:14.052Z,12.58
2019-05-22T06:03:43.523Z,12.58
2019-05-22T06:06:25.076Z,12.58
2019-05-22T06:09:01.661Z,12.58
2019-05-22T06:11:33.779Z,12.58
2019-05-22T06:14:08.779Z,12.60
2019-05-22T06:16:54.100Z,12.62
2019-05-22T06:19:26.309Z,12.65
2019-05-22T06:21:54.850Z,12.68
2019-05-22T06:24:36.438Z,12.68
2019-05-22T06:27:16.254Z,12.69
2019-05-22T06:30:04.860Z,12.71
2019-05-22T06:32:54.542Z,12.74
2019-05-22T06:35:25.152Z,12.78
2019-05-22T06:38:17.422Z,12.81
2019-05-22T06:40:46.366Z,12.84
2019-05-22T06:43:28.668Z,12.86
2019-05-22T06:45:57.571Z,12.84
2019-05-22T06:48:26.016Z,12.85
2019-05-22T06:50:54.713Z,12.83
2019-05-22T06:53:23.242Z,12.85
2019-05-22T06:55:51.694Z,12.88
2019-05-22T06:58:20.746Z,12.88
2019-05-22T07:00:54.201Z,12.90
2019-05-22T07:03:24.593Z,12.89
2019-05-22T07:05:54.816Z,12.89
2019-05-22T07:08:23.404Z,12.87
2019-05-22T07:10:52.098Z,12.87
2019-05-22T07:13:22.056Z,12.83
2019-05-22T07:15:52.421Z,12.82
2019-05-22T07:18:24.001Z,12.74
2019-05-22T07:20:53.253Z,12.70
2019-05-22T07:23:24.434Z,12.65
2019-05-22T07:25:54.790Z,12.62
2019-05-22T07:28:26.835Z,12.65
2019-05-22T07:30:56.078Z,12.67
2019-05-22T07:33:24.850Z,12.70
2019-05-22T07:36:12.142Z,12.71
2019-05-22T07:38:23.848Z,12.71
2019-05-22T07:40:54.183Z,12.72
2019-05-22T07:43:23.216Z,12.74
2019-05-22T07:45:53.796Z,12.76
2019-05-22T07:48:26.762Z,12.78
2019-05-22T07:50:56.920Z,12.78
2019-05-22T07:53:26.683Z,12.83
2019-05-22T07:55:58.028Z,12.85
2019-05-22T07:58:29.834Z,12.87
2019-05-22T08:01:02.081Z,12.90
2019-05-22T08:03:32.671Z,12.91
2019-05-22T08:06:03.273Z,12.94
2019-05-22T08:08:33.220Z,12.94
2019-05-22T08:11:03.589Z,12.99
2019-05-22T08:13:33.249Z,13.04
2019-05-22T08:16:02.688Z,13.05
2019-05-22T08:18:33.578Z,13.07
2019-05-22T08:21:02.980Z,13.10
2019-05-22T08:23:33.517Z,13.08
2019-05-22T08:26:02.121Z,13.09
2019-05-22T08:28:33.323Z,13.11
2019-05-22T08:31:03.157Z,13.09
2019-05-22T08:33:34.464Z,13.08
2019-05-22T08:36:05.071Z,13.08
2019-05-22T08:38:35.290Z,13.16
2019-05-22T08:41:08.800Z,13.23
2019-05-22T08:44:03.210Z,13.22
2019-05-22T08:46:09.600Z,13.29
2019-05-22T08:48:47.522Z,13.28
2019-05-22T08:51:15.077Z,13.25
2019-05-22T08:53:47.997Z,13.25
2019-05-22T08:56:15.957Z,13.34
2019-05-22T08:58:47.627Z,13.41
2019-05-22T09:01:17.663Z,13.49
2019-05-22T09:03:47.045Z,13.69
2019-05-22T09:06:15.629Z,13.91
2019-05-22T09:08:44.109Z,14.12
2019-05-22T09:11:12.619Z,14.35
2019-05-22T09:13:41.446Z,14.63
2019-05-22T09:16:09.969Z,14.74
2019-05-22T09:18:38.644Z,14.87
2019-05-22T09:21:07.844Z,14.95
2019-05-22T09:23:37.033Z,14.95
2019-05-22T09:26:08.354Z,15.00
2019-05-22T09:28:37.559Z,14.97
2019-05-22T09:31:06.198Z,14.96
2019-05-22T09:33:36.507Z,14.95
2019-05-22T09:36:07.553Z,14.99
2019-05-22T09:38:36.778Z,15.06
2019-05-22T09:41:06.434Z,15.11
2019-05-22T09:43:35.011Z,15.19
2019-05-22T09:46:03.896Z,15.35
2019-05-22T09:48:35.495Z,15.43
2019-05-22T09:51:06.342Z,15.51
2019-05-22T09:53:38.063Z,15.36
2019-05-22T09:56:06.614Z,15.38
2019-05-22T09:58:35.508Z,15.15
2019-05-22T10:01:05.382Z,15.00
2019-05-22T10:03:36.614Z,14.73
2019-05-22T10:06:06.005Z,14.68
2019-05-22T10:08:34.651Z,14.75
2019-05-22T10:11:03.297Z,14.82
2019-05-22T10:13:33.306Z,14.94
2019-05-22T10:16:01.879Z,15.15
2019-05-22T10:18:30.404Z,15.38
2019-05-22T10:20:59.399Z,15.66
2019-05-22T10:23:29.090Z,15.71
2019-05-22T10:25:57.764Z,15.58
2019-05-22T10:28:26.318Z,15.45
2019-05-22T10:30:57.498Z,15.28
2019-05-22T10:33:28.094Z,15.20
2019-05-22T10:35:56.586Z,15.07
2019-05-22T10:38:25.128Z,15.01
2019-05-22T10:40:58.971Z,14.96
2019-05-22T10:43:25.581Z,14.93
2019-05-22T10:45:54.044Z,14.94
2019-05-22T10:48:24.067Z,15.00
2019-05-22T10:50:52.464Z,15.04
2019-05-22T10:53:32.901Z,15.05
2019-05-22T10:55:54.341Z,15.00
2019-05-22T10:58:22.806Z,15.02
2019-05-22T11:00:51.398Z,15.16
2019-05-22T11:03:20.418Z,15.41
2019-05-22T11:06:05.688Z,15.62
2019-05-22T11:08:20.855Z,15.88
2019-05-22T11:10:50.463Z,16.07
2019-05-22T11:13:19.640Z,16.19
2019-05-22T11:15:48.593Z,16.44
2019-05-22T11:18:17.826Z,16.67
2019-05-22T11:20:46.333Z,16.73
2019-05-22T11:23:15.381Z,16.72
2019-05-22T11:25:44.083Z,16.82
2019-05-22T11:28:12.772Z,17.17
2019-05-22T11:30:41.213Z,17.17
2019-05-22T11:33:10.112Z,17.41
2019-05-22T11:35:41.066Z,17.67
2019-05-22T11:38:09.779Z,17.89
2019-05-22T11:40:39.547Z,17.97
2019-05-22T11:43:09.192Z,17.86
2019-05-22T11:45:37.621Z,17.86
2019-05-22T11:48:08.199Z,18.13
2019-05-22T11:50:40.474Z,18.27
2019-05-22T11:53:09.722Z,18.53
2019-05-22T11:55:45.160Z,18.68
2019-05-22T11:58:10.034Z,18.68
2019-05-22T12:00:38.789Z,18.70
2019-05-22T12:03:09.011Z,18.70
2019-05-22T12:05:38.108Z,18.64
2019-05-22T12:08:07.088Z,18.95
2019-05-22T12:10:37.367Z,19.33
2019-05-22T12:13:09.433Z,19.45
2019-05-22T12:15:39.232Z,19.38
2019-05-22T12:18:07.996Z,19.44
2019-05-22T12:20:36.898Z,19.38
2019-05-22T12:23:06.308Z,19.41
2019-05-22T12:25:34.767Z,19.28
2019-05-22T12:28:03.249Z,19.48
2019-05-22T12:30:31.766Z,19.69
2019-05-22T12:33:01.126Z,20.03
2019-05-22T12:35:31.272Z,20.45
2019-05-22T12:38:01.470Z,20.80
2019-05-22T12:40:32.827Z,20.85
2019-05-22T12:43:03.457Z,20.72
2019-05-22T12:45:33.381Z,20.77
2019-05-22T12:48:04.221Z,20.40
2019-05-22T12:50:33.726Z,20.12
2019-05-22T12:53:05.740Z,20.06
2019-05-22T12:55:34.925Z,20.31
2019-05-22T12:58:05.454Z,20.24
2019-05-22T13:00:34.967Z,20.22
2019-05-22T13:03:06.256Z,20.32
2019-05-22T13:05:39.558Z,20.13
2019-05-22T13:08:09.492Z,20.48
2019-05-22T13:10:39.325Z,20.89
2019-05-22T13:13:09.009Z,21.02
2019-05-22T13:15:38.706Z,21.26
2019-05-22T13:18:09.972Z,21.28
2019-05-22T13:20:43.526Z,21.02
2019-05-22T13:23:13.719Z,20.82
2019-05-22T13:25:43.454Z,20.91
2019-05-22T13:28:14.375Z,20.54
2019-05-22T13:30:46.931Z,20.22
2019-05-22T13:33:20.143Z,19.97
2019-05-22T13:35:49.157Z,20.01
2019-05-22T13:38:17.975Z,20.06
2019-05-22T13:40:48.277Z,20.13
2019-05-22T13:43:18.283Z,20.24
2019-05-22T13:45:47.416Z,20.69
2019-05-22T13:48:16.199Z,21.06
2019-05-22T13:50:45.959Z,21.33
2019-05-22T13:53:17.971Z,21.29
2019-05-22T13:55:47.050Z,20.98
2019-05-22T13:58:16.501Z,20.37
2019-05-22T14:00:45.117Z,20.08
2019-05-22T14:03:14.630Z,20.03
2019-05-22T14:05:43.251Z,20.47
2019-05-22T14:08:12.612Z,20.61
2019-05-22T14:10:41.255Z,20.47
2019-05-22T14:13:09.715Z,20.25
2019-05-22T14:15:52.096Z,20.21
2019-05-22T14:18:08.814Z,20.43
2019-05-22T14:20:38.637Z,20.59
2019-05-22T14:23:07.205Z,20.43
2019-05-22T14:25:36.058Z,20.47
2019-05-22T14:28:05.617Z,20.56
2019-05-22T14:30:34.168Z,20.53
2019-05-22T14:33:04.860Z,20.57
2019-05-22T14:35:47.456Z,20.76
2019-05-22T14:38:07.966Z,20.90
2019-05-22T14:40:38.476Z,21.00
2019-05-22T14:43:07.825Z,20.61
2019-05-22T14:45:37.172Z,20.22
2019-05-22T14:48:05.882Z,19.92
2019-05-22T14:50:34.448Z,19.67
2019-05-22T14:53:03.019Z,19.72
2019-05-22T14:55:33.641Z,19.79
2019-05-22T14:58:03.265Z,19.60
2019-05-22T15:00:33.574Z,19.62
2019-05-22T15:03:02.305Z,19.55
2019-05-22T15:05:32.097Z,19.50
2019-05-22T15:08:00.873Z,19.26
2019-05-22T15:10:47.471Z,19.19
2019-05-22T15:13:16.428Z,18.97
2019-05-22T15:15:45.081Z,18.92
2019-05-22T15:18:13.606Z,18.88
2019-05-22T15:20:56.773Z,18.95
2019-05-22T15:23:26.967Z,18.80
2019-05-22T15:25:55.464Z,18.79
2019-05-22T15:28:26.862Z,18.82
2019-05-22T15:30:54.969Z,18.75
2019-05-22T15:33:24.346Z,19.04
2019-05-22T15:35:54.655Z,19.18
2019-05-22T15:38:23.892Z,19.28
2019-05-22T15:40:54.145Z,19.51
2019-05-22T15:43:24.501Z,19.58
2019-05-22T15:45:54.288Z,19.57
2019-05-22T15:48:30.323Z,19.55
2019-05-22T15:51:02.575Z,19.50
2019-05-22T15:53:33.366Z,19.43
2019-05-22T15:56:04.998Z,19.22
2019-05-22T15:58:35.244Z,19.04
2019-05-22T16:01:08.219Z,18.80
2019-05-22T16:03:37.297Z,18.50
2019-05-22T16:06:07.510Z,18.50
2019-05-22T16:08:36.496Z,18.45
2019-05-22T16:11:09.014Z,18.42
2019-05-22T16:13:39.439Z,18.37
2019-05-22T16:16:09.632Z,18.33
2019-05-22T16:18:38.752Z,18.21
2019-05-22T16:21:10.782Z,18.08
2019-05-22T16:23:40.286Z,17.98
2019-05-22T16:26:11.675Z,17.92
2019-05-22T16:28:42.325Z,17.86
2019-05-22T16:31:12.444Z,17.83
2019-05-22T16:33:41.771Z,17.75
2019-05-22T16:36:11.062Z,17.66
2019-05-22T16:38:41.683Z,17.52
2019-05-22T16:41:11.137Z,17.45
2019-05-22T16:43:48.746Z,17.39
2019-05-22T16:46:16.476Z,17.37
2019-05-22T16:48:47.672Z,17.37
2019-05-22T16:51:18.523Z,17.36
2019-05-22T16:53:58.870Z,17.35
2019-05-22T16:56:27.825Z,17.32
2019-05-22T16:58:57.784Z,17.30
2019-05-22T17:01:28.280Z,17.25
2019-05-22T17:04:00.127Z,17.21
2019-05-22T17:06:29.202Z,17.17
2019-05-22T17:08:59.254Z,17.14
2019-05-22T17:11:28.398Z,17.12
2019-05-22T17:13:59.679Z,17.12
2019-05-22T17:16:29.588Z,17.13
2019-05-22T17:18:58.803Z,17.09
2019-05-22T17:21:27.999Z,17.06
2019-05-22T17:23:59.224Z,17.04
2019-05-22T17:26:28.775Z,17.01
2019-05-22T17:28:57.354Z,17.04
2019-05-22T17:31:27.608Z,17.02
2019-05-22T17:33:56.269Z,17.00
2019-05-22T17:36:25.604Z,16.94
2019-05-22T17:38:56.516Z,16.88
2019-05-22T17:41:27.762Z,16.80
2019-05-22T17:43:57.195Z,16.71
2019-05-22T17:46:27.272Z,16.64
2019-05-22T17:48:56.789Z,16.55
2019-05-22T17:51:26.874Z,16.50
2019-05-22T17:53:55.432Z,16.41
2019-05-22T17:56:25.224Z,16.33
2019-05-22T17:58:53.645Z,16.26
2019-05-22T18:01:23.821Z,16.18
2019-05-22T18:03:53.539Z,16.09
2019-05-22T18:06:21.983Z,16.01
2019-05-22T18:08:50.871Z,15.98
2019-05-22T18:11:19.857Z,15.95
2019-05-22T18:14:03.815Z,15.87
2019-05-22T18:16:33.990Z,15.80
2019-05-22T18:19:04.669Z,15.71
2019-05-22T18:21:34.226Z,15.66
2019-05-22T18:24:04.166Z,15.61
2019-05-22T18:26:34.617Z,15.57
2019-05-22T18:29:03.536Z,15.52
2019-05-22T18:31:31.951Z,15.41
2019-05-22T18:34:00.479Z,15.33
2019-05-22T18:36:29.034Z,15.23
2019-05-22T18:38:57.504Z,15.14
2019-05-22T18:41:26.551Z,15.07
2019-05-22T18:43:56.888Z,14.98
2019-05-22T18:46:25.292Z,14.87
2019-05-22T18:48:53.769Z,14.79
2019-05-22T18:51:23.192Z,14.66
2019-05-22T18:53:54.764Z,14.55
2019-05-22T18:56:23.391Z,14.45
2019-05-22T18:58:52.410Z,14.33
2019-05-22T19:01:21.756Z,14.23
2019-05-22T19:03:51.899Z,14.09
2019-05-22T19:06:29.792Z,13.92
2019-05-22T19:08:50.980Z,13.79
2019-05-22T19:11:19.488Z,13.59
2019-05-22T19:13:49.472Z,13.56
2019-05-22T19:16:17.984Z,13.44
2019-05-22T19:18:46.836Z,13.32
2019-05-22T19:21:15.417Z,13.20
2019-05-22T19:23:43.873Z,13.08
2019-05-22T19:26:12.340Z,12.97
2019-05-22T19:28:44.079Z,12.71
2019-05-22T19:31:10.953Z,12.73
2019-05-22T19:33:39.506Z,12.60
2019-05-22T19:36:09.125Z,12.51
2019-05-22T19:38:39.097Z,12.43
2019-05-22T19:41:07.484Z,12.35
2019-05-22T19:43:35.960Z,12.24
2019-05-22T19:46:04.878Z,12.15
2019-05-22T19:48:34.341Z,12.06
2019-05-22T19:51:04.106Z,11.99
2019-05-22T19:53:32.943Z,11.91
2019-05-22T19:56:01.436Z,11.84
2019-05-22T19:58:31.758Z,11.76
2019-05-22T20:01:00.399Z,11.68
2019-05-22T20:03:30.136Z,11.61
2019-05-22T20:05:59.151Z,11.55
2019-05-22T20:08:27.693Z,11.49
2019-05-22T20:10:56.466Z,11.31
2019-05-22T20:13:25.294Z,11.37
2019-05-22T20:15:54.959Z,11.29
2019-05-22T20:18:28.247Z,11.22
2019-05-22T20:20:56.776Z,11.19
2019-05-22T20:23:35.127Z,11.14
2019-05-22T20:25:56.009Z,11.09
2019-05-22T20:28:26.061Z,11.01
2019-05-22T20:30:54.955Z,10.97
2019-05-22T20:33:26.969Z,10.92
2019-05-22T20:35:55.883Z,10.85
2019-05-22T20:38:25.439Z,10.81
2019-05-22T20:40:54.101Z,10.78
2019-05-22T20:43:22.738Z,10.73
2019-05-22T20:45:53.911Z,10.70
2019-05-22T20:48:28.800Z,10.66
2019-05-22T20:50:59.920Z,10.61
2019-05-22T20:53:30.212Z,10.57
2019-05-22T20:56:00.051Z,10.54
2019-05-22T20:58:30.415Z,10.50
2019-05-22T21:01:00.936Z,10.46
2019-05-22T21:03:31.969Z,10.41
2019-05-22T21:06:04.936Z,10.37
2019-05-22T21:08:36.090Z,10.32
2019-05-22T21:11:04.772Z,10.28
2019-05-22T21:13:34.648Z,10.23
2019-05-22T21:16:05.267Z,10.21
2019-05-22T21:18:35.469Z,10.17
2019-05-22T21:21:05.273Z,10.14
2019-05-22T21:23:35.975Z,9.92
2019-05-22T21:26:05.470Z,10.04
2019-05-22T21:28:33.921Z,9.99
2019-05-22T21:31:04.073Z,9.94
2019-05-22T21:33:32.584Z,9.89
2019-05-22T21:36:01.777Z,9.83
2019-05-22T21:38:30.451Z,9.77
2019-05-22T21:40:59.458Z,9.72
2019-05-22T21:43:28.630Z,9.65
2019-05-22T21:45:57.606Z,9.60
2019-05-22T21:48:28.961Z,9.54
2019-05-22T21:50:57.541Z,9.52
2019-05-22T21:53:26.103Z,9.48
2019-05-22T21:56:04.002Z,9.46
2019-05-22T21:58:26.992Z,9.41
2019-05-22T22:00:57.972Z,9.37
2019-05-22T22:03:38.609Z,9.33
2019-05-22T22:06:07.689Z,9.30
2019-05-22T22:08:36.587Z,9.28
2019-05-22T22:11:05.641Z,9.25
2019-05-22T22:13:34.891Z,9.20
2019-05-22T22:16:04.055Z,9.17
2019-05-22T22:18:33.120Z,9.15
2019-05-22T22:21:02.432Z,9.12
2019-05-22T22:23:30.824Z,9.07
2019-05-22T22:26:00.710Z,9.05
2019-05-22T22:28:30.002Z,9.03
2019-05-22T22:31:00.576Z,9.00
2019-05-22T22:33:32.434Z,8.96
2019-05-22T22:36:03.285Z,8.95
2019-05-22T22:38:33.324Z,8.93
2019-05-22T22:41:02.426Z,8.90
2019-05-22T22:43:33.272Z,8.87
2019-05-22T22:46:05.324Z,8.84
2019-05-22T22:48:37.490Z,8.84
2019-05-22T22:51:09.724Z,8.83
2019-05-22T22:53:38.975Z,8.81
2019-05-22T22:56:10.137Z,8.76
2019-05-22T22:58:39.975Z,8.72
2019-05-22T23:01:13.031Z,8.69
2019-05-22T23:03:45.392Z,8.67
2019-05-22T23:06:15.849Z,8.64
2019-05-22T23:08:45.280Z,8.62
2019-05-22T23:11:15.699Z,8.63
2019-05-22T23:13:46.245Z,8.63
2019-05-22T23:16:18.178Z,8.61
2019-05-22T23:18:58.596Z,8.57
2019-05-22T23:21:25.851Z,8.51
2019-05-22T23:23:53.888Z,8.44
2019-05-22T23:26:23.795Z,8.39
2019-05-22T23:28:54.985Z,8.35
2019-05-22T23:31:24.218Z,8.31
2019-05-22T23:33:53.675Z,8.27
2019-05-22T23:36:22.914Z,8.23
2019-05-22T23:38:52.415Z,8.20
2019-05-22T23:41:23.857Z,8.17
2019-05-22T23:43:52.841Z,8.14
2019-05-22T23:46:24.504Z,8.11
2019-05-22T23:48:53.380Z,8.07
2019-05-22T23:51:22.975Z,8.05
2019-05-22T23:53:53.098Z,8.03
2019-05-22T23:56:22.494Z,8.01
2019-05-22T23:58:53.135Z,7.97
